Startpagina
METAR-TAF:

METAR-TAF

Vliegvelden :

Aéroport de Paris-Orly

Parijs-Orly, Frankrijk

breedte: 48-44N, lengte: 002-24E, hoogte: 89 m

Actueel weer

Dit bericht is 24 minuten geleden gemaakt, om 13:00 UTC
Wind 8 kt uit het oosten, variërend tussen het noordoosten en het oostzuidoosten
Temperatuur 25°C
Vochtigheid 28%
Druk 1022 hPa
Zicht 10 km of meer
geen wolken onder 1500 m en geen cumulonimbus

METAR: LFPO 101300Z AUTO 08008KT 050V120 CAVOK 25/05 Q1022

Tijdstip: 15:24 (13:24 UTC)


TAF: ontbreekt

Waarnemingen en weersverwachtingen van meer dan 4000 vliegvelden (METAR en TAF).

De beschikbare stations zijn de gele en rode punten op de kaart.

Ga met uw muis naar het station om de naam te zien.

Klik dan om waarnemingen en weersverwachtingen te zien.

kaart wijzigen: klik op de groene knoppen met een zwart kruis om in te zoomen, op de groene knop met een streepje om uit te zoomen of op de groene pijlen voor aangrenzende kaarten.


METAR-TAF: